createdAt,value
2018-07-15T00:00:45.615Z,17.48
2018-07-15T00:01:45.620Z,17.48
2018-07-15T00:02:45.621Z,17.57
2018-07-15T00:03:45.661Z,17.41
2018-07-15T00:04:45.673Z,17.46
2018-07-15T00:05:45.692Z,17.40
2018-07-15T00:06:45.725Z,17.46
2018-07-15T00:07:47.745Z,17.44
2018-07-15T00:08:45.751Z,17.43
2018-07-15T00:09:45.775Z,17.29
2018-07-15T00:10:45.808Z,17.30
2018-07-15T00:11:45.842Z,17.33
2018-07-15T00:12:45.843Z,17.26
2018-07-15T00:13:45.884Z,17.17
2018-07-15T00:14:45.877Z,17.26
2018-07-15T00:15:45.894Z,17.20
2018-07-15T00:16:45.955Z,17.20
2018-07-15T00:17:45.942Z,17.20
2018-07-15T00:18:45.960Z,17.23
2018-07-15T00:19:47.000Z,17.17
2018-07-15T00:20:45.999Z,17.14
2018-07-15T00:21:47.022Z,17.08
2018-07-15T00:22:46.041Z,17.13
2018-07-15T00:23:46.077Z,17.15
2018-07-15T00:24:46.075Z,17.06
2018-07-15T00:25:46.111Z,17.07
2018-07-15T00:26:46.153Z,17.06
2018-07-15T00:27:46.139Z,17.03
2018-07-15T00:28:46.159Z,17.10
2018-07-15T00:29:47.194Z,16.98
2018-07-15T00:30:46.197Z,16.92
2018-07-15T00:31:46.242Z,16.95
2018-07-15T00:32:46.240Z,17.03
2018-07-15T00:33:46.297Z,17.04
2018-07-15T00:34:46.277Z,16.92
2018-07-15T00:35:47.331Z,16.92
2018-07-15T00:36:46.327Z,16.88
2018-07-15T00:37:47.361Z,16.88
2018-07-15T00:38:46.376Z,16.77
2018-07-15T00:39:46.394Z,16.73
2018-07-15T00:40:46.417Z,16.71
2018-07-15T00:41:46.440Z,16.65
2018-07-15T00:42:46.460Z,16.62
2018-07-15T00:43:46.480Z,16.65
2018-07-15T00:44:46.492Z,16.62
2018-07-15T00:45:46.513Z,16.67
2018-07-15T00:46:46.534Z,16.62
2018-07-15T00:47:46.561Z,16.62
2018-07-15T00:48:46.593Z,16.58
2018-07-15T00:49:46.598Z,16.62
2018-07-15T00:50:46.606Z,16.53
2018-07-15T00:51:46.655Z,16.56
2018-07-15T00:52:46.682Z,16.59
2018-07-15T00:53:46.677Z,16.50
2018-07-15T00:54:46.746Z,16.58
2018-07-15T00:55:46.722Z,16.56
2018-07-15T00:56:46.743Z,16.52
2018-07-15T00:57:46.747Z,16.55
2018-07-15T00:58:46.781Z,16.44
2018-07-15T00:59:46.812Z,16.41
2018-07-15T01:00:46.830Z,16.48
2018-07-15T01:01:46.844Z,16.49
2018-07-15T01:02:46.867Z,16.42
2018-07-15T01:03:46.905Z,16.44
2018-07-15T01:04:46.912Z,16.48
2018-07-15T01:05:46.920Z,16.38
2018-07-15T01:06:46.958Z,16.35
2018-07-15T01:07:46.971Z,16.42
2018-07-15T01:08:46.989Z,16.42
2018-07-15T01:09:47.015Z,16.41
2018-07-15T01:10:47.044Z,16.40
2018-07-15T01:11:47.047Z,16.42
2018-07-15T01:12:47.068Z,16.40
2018-07-15T01:13:47.078Z,16.30
2018-07-15T01:14:47.124Z,16.35
2018-07-15T01:15:47.121Z,16.42
2018-07-15T01:16:47.168Z,16.34
2018-07-15T01:17:47.175Z,16.31
2018-07-15T01:18:47.197Z,16.37
2018-07-15T01:19:47.230Z,16.16
2018-07-15T01:20:47.232Z,16.37
2018-07-15T01:21:47.247Z,16.33
2018-07-15T01:22:47.275Z,16.35
2018-07-15T01:23:47.301Z,16.27
2018-07-15T01:24:47.328Z,16.34
2018-07-15T01:25:47.336Z,16.35
2018-07-15T01:26:47.384Z,16.26
2018-07-15T01:27:47.391Z,16.27
2018-07-15T01:28:47.393Z,16.27
2018-07-15T01:29:47.419Z,16.31
2018-07-15T01:30:47.448Z,16.26
2018-07-15T01:31:47.458Z,16.20
2018-07-15T01:32:47.478Z,16.20
2018-07-15T01:33:47.483Z,16.16
2018-07-15T01:34:47.517Z,16.14
2018-07-15T01:35:47.542Z,16.15
2018-07-15T01:36:47.553Z,16.16
2018-07-15T01:37:47.580Z,16.18
2018-07-15T01:38:47.613Z,16.07
2018-07-15T01:39:47.604Z,16.11
2018-07-15T01:40:47.650Z,16.07
2018-07-15T01:41:47.668Z,16.04
2018-07-15T01:42:47.686Z,15.99
2018-07-15T01:43:47.692Z,15.97
2018-07-15T01:44:47.732Z,15.94
2018-07-15T01:45:47.746Z,15.89
2018-07-15T01:46:47.789Z,15.88
2018-07-15T01:47:47.771Z,15.81
2018-07-15T01:48:47.787Z,15.86
2018-07-15T01:49:47.834Z,15.84
2018-07-15T01:50:47.845Z,15.85
2018-07-15T01:51:47.853Z,15.85
2018-07-15T01:52:47.908Z,15.92
2018-07-15T01:53:47.916Z,15.92
2018-07-15T01:54:47.927Z,15.85
2018-07-15T01:55:47.967Z,15.82
2018-07-15T01:56:47.972Z,15.82
2018-07-15T01:57:47.986Z,15.79
2018-07-15T01:58:48.006Z,15.79
2018-07-15T01:59:48.018Z,15.81
2018-07-15T02:00:48.056Z,15.76
2018-07-15T02:01:48.069Z,15.76
2018-07-15T02:02:48.112Z,15.70
2018-07-15T02:03:48.096Z,15.76
2018-07-15T02:04:48.130Z,15.74
2018-07-15T02:05:48.151Z,15.72
2018-07-15T02:06:48.172Z,15.79
2018-07-15T02:07:48.182Z,15.76
2018-07-15T02:08:48.222Z,15.76
2018-07-15T02:09:48.212Z,15.67
2018-07-15T02:10:48.259Z,15.76
2018-07-15T02:11:48.266Z,15.70
2018-07-15T02:12:48.294Z,15.66
2018-07-15T02:13:48.299Z,15.70
2018-07-15T02:14:48.320Z,15.66
2018-07-15T02:15:48.333Z,15.60
2018-07-15T02:16:48.373Z,15.61
2018-07-15T02:17:48.384Z,15.59
2018-07-15T02:18:48.414Z,15.60
2018-07-15T02:19:48.424Z,15.57
2018-07-15T02:20:48.448Z,15.54
2018-07-15T02:21:48.455Z,15.49
2018-07-15T02:22:48.488Z,15.54
2018-07-15T02:23:48.499Z,15.57
2018-07-15T02:24:48.533Z,15.52
2018-07-15T02:25:48.538Z,15.48
2018-07-15T02:26:48.575Z,15.59
2018-07-15T02:27:48.596Z,15.51
2018-07-15T02:28:48.601Z,15.56
2018-07-15T02:29:48.625Z,15.49
2018-07-15T02:30:48.645Z,15.43
2018-07-15T02:31:48.670Z,15.38
2018-07-15T02:32:48.685Z,15.38
2018-07-15T02:33:48.703Z,15.36
2018-07-15T02:34:48.731Z,15.38
2018-07-15T02:35:48.737Z,15.36
2018-07-15T02:36:48.911Z,15.30
2018-07-15T02:37:48.776Z,15.39
2018-07-15T02:38:48.799Z,15.30
2018-07-15T02:39:48.821Z,15.23
2018-07-15T02:40:48.853Z,15.26
2018-07-15T02:41:48.875Z,15.28
2018-07-15T02:42:48.884Z,15.23
2018-07-15T02:43:48.919Z,15.28
2018-07-15T02:44:48.934Z,15.21
2018-07-15T02:45:48.926Z,15.27
2018-07-15T02:46:48.997Z,15.19
2018-07-15T02:47:48.993Z,15.23
2018-07-15T02:48:49.000Z,15.17
2018-07-15T02:49:49.008Z,15.13
2018-07-15T02:50:49.040Z,15.17
2018-07-15T02:51:49.053Z,15.21
2018-07-15T02:52:49.086Z,15.09
2018-07-15T02:53:49.088Z,15.08
2018-07-15T02:54:49.125Z,15.15
2018-07-15T02:55:49.144Z,15.09
2018-07-15T02:56:49.176Z,15.12
2018-07-15T02:57:49.192Z,15.03
2018-07-15T02:58:49.225Z,15.12
2018-07-15T02:59:49.217Z,15.15
2018-07-15T03:00:49.239Z,15.11
2018-07-15T03:01:49.258Z,15.02
2018-07-15T03:02:49.274Z,15.13
2018-07-15T03:03:49.296Z,15.11
2018-07-15T03:04:49.318Z,15.09
2018-07-15T03:05:49.357Z,15.09
2018-07-15T03:06:49.364Z,14.99
2018-07-15T03:07:49.384Z,14.99
2018-07-15T03:08:49.420Z,15.03
2018-07-15T03:09:49.417Z,14.95
2018-07-15T03:10:49.432Z,14.87
2018-07-15T03:11:49.449Z,14.91
2018-07-15T03:12:49.485Z,14.90
2018-07-15T03:13:49.497Z,14.87
2018-07-15T03:14:49.521Z,14.81
2018-07-15T03:15:49.553Z,14.75
2018-07-15T03:16:49.570Z,14.75
2018-07-15T03:17:49.573Z,14.87
2018-07-15T03:18:49.629Z,14.75
2018-07-15T03:19:49.638Z,14.75
2018-07-15T03:20:49.645Z,14.75
2018-07-15T03:21:49.650Z,14.86
2018-07-15T03:22:49.675Z,14.84
2018-07-15T03:23:49.720Z,14.75
2018-07-15T03:24:49.712Z,14.78
2018-07-15T03:25:49.740Z,14.68
2018-07-15T03:26:49.751Z,14.68
2018-07-15T03:27:49.775Z,14.68
2018-07-15T03:28:49.808Z,14.67
2018-07-15T03:29:49.817Z,14.67
2018-07-15T03:30:49.827Z,14.61
2018-07-15T03:31:49.860Z,14.62
2018-07-15T03:32:49.894Z,14.61
2018-07-15T03:33:49.882Z,14.68
2018-07-15T03:34:49.923Z,14.69
2018-07-15T03:35:49.920Z,14.68
2018-07-15T03:36:49.957Z,14.61
2018-07-15T03:37:49.965Z,14.56
2018-07-15T03:38:50.009Z,14.65
2018-07-15T03:39:50.085Z,14.67
2018-07-15T03:40:50.039Z,14.68
2018-07-15T03:41:50.050Z,14.69
2018-07-15T03:42:50.087Z,14.67
2018-07-15T03:43:50.084Z,14.71
2018-07-15T03:44:50.134Z,14.65
2018-07-15T03:45:50.138Z,14.71
2018-07-15T03:46:50.138Z,14.69
2018-07-15T03:47:50.166Z,14.64
2018-07-15T03:48:50.211Z,14.62
2018-07-15T03:49:50.230Z,14.61
2018-07-15T03:50:50.227Z,14.61
2018-07-15T03:51:50.254Z,14.60
2018-07-15T03:52:50.282Z,14.53
2018-07-15T03:53:50.292Z,14.57
2018-07-15T03:54:50.307Z,14.42
2018-07-15T03:55:50.318Z,14.53
2018-07-15T03:56:50.356Z,14.47
2018-07-15T03:57:50.355Z,14.47
2018-07-15T03:58:50.387Z,14.49
2018-07-15T03:59:50.400Z,14.47
2018-07-15T04:00:50.542Z,14.46
2018-07-15T04:01:50.450Z,14.54
2018-07-15T04:02:50.462Z,14.52
2018-07-15T04:03:50.467Z,14.54
2018-07-15T04:04:50.522Z,14.65
2018-07-15T04:05:50.512Z,14.57
2018-07-15T04:06:50.549Z,14.56
2018-07-15T04:07:50.556Z,14.61
2018-07-15T04:08:50.628Z,14.64
2018-07-15T04:09:50.636Z,14.54
2018-07-15T04:10:50.622Z,14.56
2018-07-15T04:11:50.641Z,14.62
2018-07-15T04:12:50.656Z,14.68
2018-07-15T04:13:50.671Z,14.69
2018-07-15T04:14:50.710Z,14.74
2018-07-15T04:15:50.711Z,14.80
2018-07-15T04:16:50.741Z,14.80
2018-07-15T04:17:50.760Z,14.71
2018-07-15T04:18:50.774Z,14.78
2018-07-15T04:19:50.782Z,14.78
2018-07-15T04:20:50.807Z,14.80
2018-07-15T04:21:50.823Z,14.78
2018-07-15T04:22:50.849Z,14.78
2018-07-15T04:23:50.868Z,14.74
2018-07-15T04:24:50.901Z,14.75
2018-07-15T04:25:50.922Z,14.75
2018-07-15T04:26:50.939Z,14.80
2018-07-15T04:27:50.938Z,14.78
2018-07-15T04:28:50.956Z,14.81
2018-07-15T04:29:50.972Z,14.75
2018-07-15T04:30:51.014Z,14.72
2018-07-15T04:31:51.032Z,14.80
2018-07-15T04:32:51.050Z,14.88
2018-07-15T04:33:51.049Z,14.90
2018-07-15T04:34:51.083Z,14.95
2018-07-15T04:35:51.083Z,14.99
2018-07-15T04:36:51.127Z,14.98
2018-07-15T04:37:51.140Z,14.98
2018-07-15T04:38:51.172Z,14.83
2018-07-15T04:39:51.178Z,14.90
2018-07-15T04:40:51.206Z,14.83
2018-07-15T04:41:51.227Z,14.94
2018-07-15T04:42:51.282Z,15.02
2018-07-15T04:43:51.332Z,15.11
2018-07-15T04:44:51.283Z,15.06
2018-07-15T04:45:51.280Z,15.13
2018-07-15T04:46:51.312Z,15.17
2018-07-15T04:47:51.334Z,15.15
2018-07-15T04:48:51.366Z,15.19
2018-07-15T04:49:51.372Z,15.20
2018-07-15T04:50:51.381Z,15.15
2018-07-15T04:51:51.405Z,15.26
2018-07-15T04:52:51.444Z,15.33
2018-07-15T04:53:51.446Z,15.28
2018-07-15T04:54:51.477Z,15.42
2018-07-15T04:55:51.485Z,15.39
2018-07-15T04:56:51.509Z,15.43
2018-07-15T04:57:51.539Z,15.57
2018-07-15T04:58:51.563Z,15.72
2018-07-15T04:59:51.566Z,15.76
2018-07-15T05:00:51.585Z,15.85
2018-07-15T05:01:51.628Z,15.96
2018-07-15T05:02:51.622Z,16.06
2018-07-15T05:03:51.647Z,16.04
2018-07-15T05:04:51.681Z,16.07
2018-07-15T05:05:51.676Z,16.12
2018-07-15T05:06:51.686Z,16.12
2018-07-15T05:07:51.726Z,16.15
2018-07-15T05:08:51.769Z,16.16
2018-07-15T05:09:51.756Z,16.18
2018-07-15T05:10:51.780Z,16.16
2018-07-15T05:11:51.818Z,16.15
2018-07-15T05:12:52.822Z,16.20
2018-07-15T05:13:51.843Z,16.15
2018-07-15T05:14:51.883Z,16.14
2018-07-15T05:15:51.877Z,16.20
2018-07-15T05:16:51.897Z,16.31
2018-07-15T05:17:51.902Z,16.27
2018-07-15T05:18:51.926Z,16.25
2018-07-15T05:19:51.942Z,16.37
2018-07-15T05:20:51.975Z,16.38
2018-07-15T05:21:51.980Z,16.38
2018-07-15T05:22:52.018Z,16.37
2018-07-15T05:23:52.044Z,16.42
2018-07-15T05:24:52.106Z,16.38
2018-07-15T05:25:52.063Z,16.41
2018-07-15T05:26:52.091Z,16.44
2018-07-15T05:27:52.105Z,16.52
2018-07-15T05:28:52.135Z,16.53
2018-07-15T05:29:52.159Z,16.58
2018-07-15T05:30:52.162Z,16.58
2018-07-15T05:31:52.191Z,16.52
2018-07-15T05:32:52.213Z,16.58
2018-07-15T05:33:52.209Z,16.52
2018-07-15T05:34:52.242Z,16.68
2018-07-15T05:35:52.270Z,16.74
2018-07-15T05:36:52.282Z,16.77
2018-07-15T05:37:52.316Z,16.81
2018-07-15T05:38:52.329Z,16.90
2018-07-15T05:39:52.335Z,16.95
2018-07-15T05:40:52.372Z,16.83
2018-07-15T05:41:52.381Z,16.90
2018-07-15T05:42:52.407Z,16.93
2018-07-15T05:43:52.417Z,16.93
2018-07-15T05:44:52.443Z,16.89
2018-07-15T05:45:52.453Z,16.88
2018-07-15T05:46:52.469Z,16.93
2018-07-15T05:47:52.482Z,16.95
2018-07-15T05:48:52.537Z,17.00
2018-07-15T05:49:52.527Z,17.00
2018-07-15T05:50:52.540Z,16.98
2018-07-15T05:51:52.575Z,17.08
2018-07-15T05:52:52.587Z,17.10
2018-07-15T05:53:52.605Z,17.22
2018-07-15T05:54:52.649Z,17.13
2018-07-15T05:55:52.656Z,17.20
2018-07-15T05:56:52.659Z,17.22
2018-07-15T05:57:52.707Z,17.28
2018-07-15T05:58:52.720Z,17.22
2018-07-15T05:59:52.737Z,17.26
2018-07-15T06:00:52.749Z,17.32
2018-07-15T06:01:52.748Z,17.32
2018-07-15T06:02:52.797Z,17.43
2018-07-15T06:03:52.796Z,17.30
2018-07-15T06:04:52.820Z,17.43
2018-07-15T06:05:52.826Z,17.46
2018-07-15T06:06:52.857Z,17.48
2018-07-15T06:07:52.883Z,17.50
2018-07-15T06:08:52.966Z,17.59
2018-07-15T06:09:52.918Z,17.66
2018-07-15T06:10:52.972Z,17.64
2018-07-15T06:11:52.940Z,17.78
2018-07-15T06:12:52.970Z,17.73
2018-07-15T06:13:53.107Z,17.78
2018-07-15T06:14:53.022Z,17.78
2018-07-15T06:15:53.129Z,17.71
2018-07-15T06:16:53.061Z,17.81
2018-07-15T06:17:53.155Z,17.88
2018-07-15T06:18:53.083Z,17.92
2018-07-15T06:19:53.138Z,17.95
2018-07-15T06:20:53.134Z,17.95
2018-07-15T06:21:53.148Z,18.02
2018-07-15T06:22:53.190Z,17.97
2018-07-15T06:23:53.277Z,18.03
2018-07-15T06:24:53.192Z,18.09
2018-07-15T06:25:53.246Z,17.97
2018-07-15T06:26:53.313Z,18.10
2018-07-15T06:27:53.261Z,18.19
2018-07-15T06:28:53.338Z,18.22
2018-07-15T06:29:53.280Z,18.15
2018-07-15T06:30:54.392Z,18.09
2018-07-15T06:31:53.380Z,18.19
2018-07-15T06:32:53.453Z,18.21
2018-07-15T06:33:53.397Z,18.19
2018-07-15T06:34:53.449Z,18.24
2018-07-15T06:35:53.420Z,18.24
2018-07-15T06:36:53.435Z,18.29
2018-07-15T06:37:53.478Z,18.42
2018-07-15T06:38:53.593Z,18.43
2018-07-15T06:39:53.508Z,18.57
2018-07-15T06:40:53.596Z,18.62
2018-07-15T06:41:53.531Z,18.74
2018-07-15T06:42:54.628Z,18.73
2018-07-15T06:43:53.578Z,18.82
2018-07-15T06:44:53.613Z,18.83
2018-07-15T06:45:53.613Z,18.91
2018-07-15T06:46:53.718Z,18.94
2018-07-15T06:47:53.627Z,19.11
2018-07-15T06:48:53.729Z,19.18
2018-07-15T06:49:53.718Z,19.29
2018-07-15T06:50:53.717Z,19.21
2018-07-15T06:51:53.725Z,19.32
2018-07-15T06:52:53.774Z,19.28
2018-07-15T06:53:53.782Z,19.31
2018-07-15T06:54:53.783Z,19.35
2018-07-15T06:55:53.897Z,19.31
2018-07-15T06:56:53.832Z,19.31
2018-07-15T06:57:53.885Z,19.31
2018-07-15T06:58:53.881Z,19.28
2018-07-15T06:59:53.953Z,19.35
2018-07-15T07:00:53.905Z,19.36
2018-07-15T07:01:54.080Z,19.38
2018-07-15T07:02:53.932Z,19.38
2018-07-15T07:03:54.084Z,19.39
2018-07-15T07:04:53.958Z,19.36
2018-07-15T07:05:54.141Z,19.35
2018-07-15T07:06:54.016Z,19.42
2018-07-15T07:07:54.107Z,19.43
2018-07-15T07:08:54.065Z,19.43
2018-07-15T07:09:54.197Z,19.38
2018-07-15T07:10:54.143Z,19.51
2018-07-15T07:11:54.191Z,19.50
2018-07-15T07:12:54.146Z,19.53
2018-07-15T07:13:54.149Z,19.47
2018-07-15T07:14:54.156Z,19.58
2018-07-15T07:15:54.227Z,19.72
2018-07-15T07:16:54.198Z,19.70
2018-07-15T07:17:54.230Z,19.61
2018-07-15T07:18:54.257Z,19.61
2018-07-15T07:19:54.389Z,19.63
2018-07-15T07:20:54.276Z,19.65
2018-07-15T07:21:54.349Z,19.78
2018-07-15T07:22:54.305Z,19.76
2018-07-15T07:23:54.384Z,19.83
2018-07-15T07:24:54.360Z,19.83
2018-07-15T07:25:54.495Z,19.76
2018-07-15T07:26:54.386Z,19.87
2018-07-15T07:27:54.524Z,19.87
2018-07-15T07:28:54.487Z,19.97
2018-07-15T07:29:54.586Z,20.00
2018-07-15T07:30:54.478Z,19.98
2018-07-15T07:31:54.538Z,20.02
2018-07-15T07:32:54.495Z,20.02
2018-07-15T07:33:54.528Z,20.02
2018-07-15T07:34:54.530Z,20.03
2018-07-15T07:35:54.734Z,20.00
2018-07-15T07:36:54.632Z,20.03
2018-07-15T07:37:54.681Z,19.95
2018-07-15T07:38:54.620Z,20.12
2018-07-15T07:39:54.677Z,20.15
2018-07-15T07:40:54.676Z,20.12
2018-07-15T07:41:54.694Z,20.09
2018-07-15T07:42:54.712Z,20.13
2018-07-15T07:43:54.839Z,20.21
2018-07-15T07:44:54.754Z,20.15
2018-07-15T07:45:54.816Z,20.27
2018-07-15T07:46:54.784Z,20.34
2018-07-15T07:47:54.817Z,20.30
2018-07-15T07:48:54.811Z,20.33
2018-07-15T07:49:54.842Z,20.34
2018-07-15T07:50:54.854Z,20.42
2018-07-15T07:51:54.956Z,20.34
2018-07-15T07:52:54.911Z,20.43
2018-07-15T07:53:54.975Z,20.46
2018-07-15T07:54:54.932Z,20.38
2018-07-15T07:55:54.994Z,20.53
2018-07-15T07:56:54.961Z,20.49
2018-07-15T07:57:55.125Z,20.49
2018-07-15T07:58:54.996Z,20.49
2018-07-15T07:59:55.121Z,20.47
2018-07-15T08:00:55.026Z,20.51
2018-07-15T08:01:55.086Z,20.54
2018-07-15T08:02:55.111Z,20.58
2018-07-15T08:03:55.101Z,20.64
2018-07-15T08:04:55.106Z,20.66
2018-07-15T08:05:55.167Z,20.74
2018-07-15T08:06:55.182Z,20.71
2018-07-15T08:07:55.189Z,20.69
2018-07-15T08:08:55.195Z,20.81
2018-07-15T08:09:55.254Z,20.77
2018-07-15T08:10:55.237Z,20.81
2018-07-15T08:11:55.257Z,20.74
2018-07-15T08:12:55.290Z,20.81
2018-07-15T08:13:55.306Z,20.83
2018-07-15T08:14:55.303Z,20.77
2018-07-15T08:15:55.448Z,20.90
2018-07-15T08:16:55.324Z,20.91
2018-07-15T08:17:55.460Z,20.90
2018-07-15T08:18:55.406Z,20.96
2018-07-15T08:19:55.507Z,20.91
2018-07-15T08:20:55.437Z,20.86
2018-07-15T08:21:55.515Z,21.04
2018-07-15T08:22:55.463Z,21.05
2018-07-15T08:23:55.666Z,21.05
2018-07-15T08:24:55.751Z,21.04
2018-07-15T08:25:55.512Z,21.14
2018-07-15T08:26:55.552Z,21.21
2018-07-15T08:27:55.651Z,21.17
2018-07-15T08:28:55.567Z,21.19
2018-07-15T08:29:55.676Z,21.20
2018-07-15T08:30:55.614Z,21.24
2018-07-15T08:31:55.829Z,21.21
2018-07-15T08:32:55.647Z,21.23
2018-07-15T08:33:55.801Z,21.26
2018-07-15T08:34:55.732Z,21.23
2018-07-15T08:35:55.834Z,21.21
2018-07-15T08:36:55.726Z,21.27
2018-07-15T08:37:55.761Z,21.26
2018-07-15T08:38:55.759Z,21.24
2018-07-15T08:39:55.876Z,21.41
2018-07-15T08:40:55.817Z,21.45
2018-07-15T08:41:55.842Z,21.45
2018-07-15T08:42:55.892Z,21.50
2018-07-15T08:43:55.870Z,21.53
2018-07-15T08:44:55.888Z,21.60
2018-07-15T08:45:55.992Z,21.54
2018-07-15T08:46:55.962Z,21.64
2018-07-15T08:47:56.111Z,21.66
2018-07-15T08:48:55.955Z,21.61
2018-07-15T08:49:56.133Z,21.76
2018-07-15T08:50:55.988Z,21.75
2018-07-15T08:51:56.139Z,21.74
2018-07-15T08:52:56.042Z,21.78
2018-07-15T08:53:56.266Z,21.74
2018-07-15T08:54:56.093Z,21.85
2018-07-15T08:55:56.260Z,21.83
2018-07-15T08:56:56.110Z,21.92
2018-07-15T08:57:56.286Z,21.85
2018-07-15T08:58:56.157Z,21.92
2018-07-15T08:59:56.213Z,21.92
2018-07-15T09:00:56.186Z,21.88
2018-07-15T09:01:56.329Z,21.99
2018-07-15T09:02:56.235Z,21.97
2018-07-15T09:03:56.364Z,22.06
2018-07-15T09:04:56.265Z,22.06
2018-07-15T09:05:56.360Z,22.13
2018-07-15T09:06:56.341Z,22.12
2018-07-15T09:07:56.369Z,22.14
2018-07-15T09:08:56.371Z,22.14
2018-07-15T09:09:56.623Z,22.23
2018-07-15T09:10:56.406Z,22.27
2018-07-15T09:11:56.500Z,22.23
2018-07-15T09:12:56.424Z,22.28
2018-07-15T09:13:56.516Z,22.39
2018-07-15T09:14:56.502Z,22.28
2018-07-15T09:15:56.554Z,22.38
2018-07-15T09:16:56.549Z,22.43
2018-07-15T09:17:56.631Z,22.32
2018-07-15T09:18:56.555Z,22.39
2018-07-15T09:19:56.646Z,22.38
2018-07-15T09:20:56.613Z,22.39
2018-07-15T09:21:56.717Z,22.43
2018-07-15T09:22:56.628Z,22.46
2018-07-15T09:23:56.669Z,22.53
2018-07-15T09:24:56.680Z,22.56
2018-07-15T09:25:56.793Z,22.57
2018-07-15T09:26:56.728Z,22.56
2018-07-15T09:27:56.868Z,22.62
2018-07-15T09:28:56.747Z,22.72
2018-07-15T09:29:56.845Z,22.74
2018-07-15T09:30:56.804Z,22.67
2018-07-15T09:31:56.877Z,22.67
2018-07-15T09:32:56.835Z,22.77
2018-07-15T09:33:56.944Z,22.87
2018-07-15T09:34:56.920Z,23.04
2018-07-15T09:35:57.982Z,22.99
2018-07-15T09:36:56.947Z,22.93
2018-07-15T09:37:56.934Z,22.97
2018-07-15T09:38:57.029Z,23.01
2018-07-15T09:39:56.983Z,23.09
2018-07-15T09:40:57.009Z,23.14
2018-07-15T09:41:57.097Z,23.08
2018-07-15T09:42:57.066Z,23.09
2018-07-15T09:43:57.134Z,23.08
2018-07-15T09:44:57.094Z,23.23
2018-07-15T09:45:57.113Z,23.20
2018-07-15T09:46:57.110Z,23.26
2018-07-15T09:47:57.225Z,23.27
2018-07-15T09:48:57.146Z,23.26
2018-07-15T09:49:57.175Z,23.26
2018-07-15T09:50:58.718Z,23.38
2018-07-15T09:51:57.265Z,23.35
2018-07-15T09:52:57.280Z,23.39
2018-07-15T09:53:57.298Z,23.38
2018-07-15T09:54:57.304Z,23.50
2018-07-15T09:55:57.403Z,23.46
2018-07-15T09:56:57.350Z,23.50
2018-07-15T09:57:57.403Z,23.50
2018-07-15T09:58:57.358Z,23.50
2018-07-15T09:59:57.435Z,23.55
2018-07-15T10:00:57.463Z,23.62
2018-07-15T10:01:57.699Z,23.65
2018-07-15T10:02:57.474Z,23.62
2018-07-15T10:03:57.597Z,23.75
2018-07-15T10:04:57.468Z,23.75
2018-07-15T10:05:57.547Z,23.86
2018-07-15T10:06:57.511Z,23.95
2018-07-15T10:07:57.726Z,24.08
2018-07-15T10:08:57.563Z,24.05
2018-07-15T10:09:57.703Z,24.13
2018-07-15T10:10:57.607Z,24.13
2018-07-15T10:11:57.682Z,24.10
2018-07-15T10:12:57.646Z,24.04
2018-07-15T10:13:57.724Z,23.90
2018-07-15T10:14:57.727Z,24.04
2018-07-15T10:15:57.827Z,24.04
2018-07-15T10:16:57.730Z,24.10
2018-07-15T10:17:57.836Z,24.13
2018-07-15T10:18:57.819Z,24.12
2018-07-15T10:19:57.848Z,24.13
2018-07-15T10:20:57.810Z,24.04
2018-07-15T10:21:57.866Z,24.05
2018-07-15T10:22:57.849Z,24.10
2018-07-15T10:23:57.964Z,24.16
2018-07-15T10:24:57.985Z,24.17
2018-07-15T10:25:57.979Z,24.17
2018-07-15T10:26:57.938Z,24.13
2018-07-15T10:27:57.989Z,24.31
2018-07-15T10:28:57.973Z,24.35
2018-07-15T10:29:58.120Z,24.57
2018-07-15T10:30:58.033Z,24.63
2018-07-15T10:31:58.138Z,24.64
2018-07-15T10:32:58.068Z,24.67
2018-07-15T10:33:58.133Z,24.76
2018-07-15T10:34:58.106Z,24.80
2018-07-15T10:35:58.141Z,24.90
2018-07-15T10:36:58.155Z,24.95
2018-07-15T10:37:58.173Z,25.00
2018-07-15T10:38:58.225Z,25.15
2018-07-15T10:39:58.234Z,25.19
2018-07-15T10:40:58.255Z,25.10
2018-07-15T10:41:58.301Z,25.17
2018-07-15T10:42:58.307Z,25.19
2018-07-15T10:43:58.419Z,25.19
2018-07-15T10:44:58.336Z,25.38
2018-07-15T10:45:58.364Z,25.34
2018-07-15T10:46:58.380Z,25.54
2018-07-15T10:47:58.460Z,25.50
2018-07-15T10:48:58.454Z,25.57
2018-07-15T10:49:58.460Z,25.67
2018-07-15T10:50:58.473Z,25.65
2018-07-15T10:51:58.574Z,25.68
2018-07-15T10:52:58.595Z,25.65
2018-07-15T10:53:58.532Z,25.69
2018-07-15T10:54:58.578Z,25.75
2018-07-15T10:55:58.588Z,25.83
2018-07-15T10:56:58.592Z,25.93
2018-07-15T10:57:58.604Z,25.89
2018-07-15T10:58:58.627Z,25.91
2018-07-15T10:59:58.663Z,25.90
2018-07-15T11:00:58.705Z,25.84
2018-07-15T11:01:58.707Z,26.04
2018-07-15T11:02:58.736Z,25.91
2018-07-15T11:03:58.769Z,26.05
2018-07-15T11:04:58.798Z,26.11
2018-07-15T11:05:58.783Z,26.18
2018-07-15T11:06:58.811Z,26.21
2018-07-15T11:07:58.850Z,26.32
2018-07-15T11:08:58.857Z,26.32
2018-07-15T11:09:58.872Z,26.31
2018-07-15T11:10:58.891Z,26.36
2018-07-15T11:11:58.941Z,26.42
2018-07-15T11:12:58.928Z,26.36
2018-07-15T11:13:58.999Z,26.40
2018-07-15T11:14:58.993Z,26.40
2018-07-15T11:15:59.017Z,26.42
2018-07-15T11:16:59.023Z,26.44
2018-07-15T11:17:59.052Z,26.47
2018-07-15T11:18:59.068Z,26.52
2018-07-15T11:20:00.091Z,26.50
2018-07-15T11:20:59.096Z,26.65
2018-07-15T11:21:59.142Z,26.64
2018-07-15T11:22:59.161Z,26.52
2018-07-15T11:23:59.191Z,26.57
2018-07-15T11:24:59.193Z,26.37
2018-07-15T11:25:59.293Z,26.35
2018-07-15T11:26:59.247Z,26.39
2018-07-15T11:27:59.289Z,26.50
2018-07-15T11:28:59.295Z,26.47
2018-07-15T11:29:59.321Z,26.49
2018-07-15T11:30:59.445Z,26.61
2018-07-15T11:31:59.365Z,26.58
2018-07-15T11:32:59.379Z,26.49
2018-07-15T11:33:59.405Z,26.28
2018-07-15T11:34:59.444Z,26.27
2018-07-15T11:35:59.457Z,26.11
2018-07-15T11:36:59.506Z,26.15
2018-07-15T11:37:59.521Z,26.20
2018-07-15T11:38:59.586Z,26.08
2018-07-15T11:39:59.547Z,26.18
2018-07-15T11:40:59.539Z,26.15
2018-07-15T11:41:59.591Z,26.22
2018-07-15T11:42:59.615Z,26.24
2018-07-15T11:43:59.624Z,26.29
2018-07-15T11:44:59.660Z,26.27
2018-07-15T11:45:59.693Z,26.36
2018-07-15T11:46:59.692Z,26.43
2018-07-15T11:47:59.728Z,26.42
2018-07-15T11:48:59.745Z,26.47
2018-07-15T11:49:59.760Z,26.49
2018-07-15T11:50:59.800Z,26.67
2018-07-15T11:51:59.803Z,26.72
2018-07-15T11:52:59.830Z,26.65
2018-07-15T11:53:59.852Z,26.55
2018-07-15T11:54:59.862Z,26.57
2018-07-15T11:55:59.894Z,26.50
2018-07-15T11:56:59.927Z,26.54
2018-07-15T11:57:59.939Z,26.59
2018-07-15T11:58:59.959Z,26.69
2018-07-15T11:59:59.979Z,26.73
2018-07-15T12:01:00.058Z,26.59
2018-07-15T12:02:00.184Z,26.50
2018-07-15T12:03:00.079Z,26.42
2018-07-15T12:04:00.092Z,26.32
2018-07-15T12:05:00.090Z,26.25
2018-07-15T12:06:00.119Z,26.36
2018-07-15T12:07:00.131Z,26.27
2018-07-15T12:08:00.173Z,26.32
2018-07-15T12:09:00.183Z,26.25
2018-07-15T12:10:00.226Z,26.31
2018-07-15T12:11:00.312Z,26.31
2018-07-15T12:12:00.254Z,26.40
2018-07-15T12:13:00.268Z,26.55
2018-07-15T12:14:00.306Z,26.68
2018-07-15T12:15:00.334Z,26.76
2018-07-15T12:16:00.356Z,26.73
2018-07-15T12:17:00.375Z,26.52
2018-07-15T12:18:00.431Z,26.62
2018-07-15T12:19:00.420Z,26.72
2018-07-15T12:20:00.450Z,26.81
2018-07-15T12:21:00.450Z,26.72
2018-07-15T12:22:00.509Z,26.65
2018-07-15T12:23:00.518Z,26.69
2018-07-15T12:24:00.544Z,26.76
2018-07-15T12:25:00.555Z,26.72
2018-07-15T12:26:00.589Z,26.77
2018-07-15T12:27:00.681Z,26.77
2018-07-15T12:28:00.612Z,26.87
2018-07-15T12:29:00.624Z,26.92
2018-07-15T12:30:00.769Z,27.02
2018-07-15T12:31:00.689Z,26.94
2018-07-15T12:32:00.729Z,26.87
2018-07-15T12:33:00.723Z,26.83
2018-07-15T12:34:00.765Z,26.86
2018-07-15T12:35:00.788Z,26.94
2018-07-15T12:36:00.824Z,26.96
2018-07-15T12:37:00.838Z,26.94
2018-07-15T12:38:00.862Z,26.95
2018-07-15T12:39:00.869Z,26.99
2018-07-15T12:40:00.892Z,26.96
2018-07-15T12:41:00.913Z,27.02
2018-07-15T12:42:00.947Z,27.10
2018-07-15T12:43:00.965Z,27.10
2018-07-15T12:44:01.391Z,27.13
2018-07-15T12:45:01.020Z,27.02
2018-07-15T12:46:01.046Z,27.11
2018-07-15T12:47:01.058Z,27.09
2018-07-15T12:48:01.073Z,27.05
2018-07-15T12:49:01.097Z,27.13
2018-07-15T12:50:01.132Z,27.39
2018-07-15T12:51:01.155Z,27.43
2018-07-15T12:52:02.237Z,27.47
2018-07-15T12:53:01.184Z,27.42